Time;durP1;ratioP1;P1;durP2;ratioP2;P2;SDS_P1;SDS_P2;PMS_P1;PMS_P2;Temp;Humidity;BMP_temperature;BMP_pressure;BME280_temperature;BME280_humidity;BME280_pressure;Samples;Min_cycle;Max_cycle;Signal;HPM_P1;HPM_P2
2021/06/23 00:00:18;;;;;;;25.58;11.93;;;;;;;21.38;100.00;97228.56;5031626;28;20401;-81
2021/06/23 00:02:43;;;;;;;32.88;11.70;;;;;;;21.54;100.00;97258.47;5048097;28;20029;-81
2021/06/23 00:05:09;;;;;;;31.77;12.40;;;;;;;21.51;100.00;97253.38;5031404;28;20033;-82
2021/06/23 00:07:35;;;;;;;26.98;11.13;;;;;;;21.46;100.00;97240.28;5031800;28;20033;-82
2021/06/23 00:10:00;;;;;;;24.65;11.52;;;;;;;21.30;100.00;97232.13;5031465;28;20049;-82
2021/06/23 00:12:29;;;;;;;29.30;12.55;;;;;;;21.36;100.00;97242.31;5031701;28;20079;-82
2021/06/23 00:14:54;;;;;;;26.35;12.02;;;;;;;21.37;100.00;97237.72;5031537;28;20025;-81
2021/06/23 00:17:20;;;;;;;27.92;12.05;;;;;;;21.11;100.00;97199.78;5047861;28;20030;-82
2021/06/23 00:19:45;;;;;;;27.17;11.52;;;;;;;20.89;100.00;97171.34;5031431;28;20404;-82
2021/06/23 00:22:11;;;;;;;32.35;11.82;;;;;;;21.02;100.00;97200.75;5014434;28;20510;-82
2021/06/23 00:24:36;;;;;;;25.38;11.95;;;;;;;21.21;100.00;97221.38;5031142;28;20496;-82
2021/06/23 00:27:02;;;;;;;36.67;10.55;;;;;;;21.39;100.00;97254.72;5047915;28;20013;-82
2021/06/23 00:29:28;;;;;;;23.52;10.73;;;;;;;21.37;100.00;97251.34;5030831;28;20021;-82
2021/06/23 00:31:53;;;;;;;34.05;11.00;;;;;;;21.02;100.00;97203.47;5031279;28;20461;-82
2021/06/23 00:34:22;;;;;;;24.63;11.82;;;;;;;21.29;100.00;97262.19;5030901;28;20075;-82
2021/06/23 00:36:47;;;;;;;33.33;12.40;;;;;;;21.14;100.00;97263.88;5031330;28;20029;-82
2021/06/23 00:39:13;;;;;;;31.73;11.77;;;;;;;21.13;100.00;97248.59;4978120;28;1518974;-82
2021/06/23 00:41:38;;;;;;;34.13;10.93;;;;;;;20.86;100.00;97201.59;5049076;28;20140;-82
2021/06/23 00:44:04;;;;;;;27.80;11.25;;;;;;;21.16;100.00;97257.28;5032246;28;20025;-82
2021/06/23 00:46:30;;;;;;;39.58;14.05;;;;;;;21.01;100.00;97237.97;5032240;28;20025;-82
2021/06/23 00:48:57;;;;;;;33.60;15.00;;;;;;;21.01;100.00;97248.88;5015950;28;20017;-82
2021/06/23 00:51:23;;;;;;;41.55;17.45;;;;;;;21.03;100.00;97273.19;5032472;28;20036;-82
2021/06/23 00:53:49;;;;;;;29.90;16.13;;;;;;;20.99;100.00;97267.22;5032319;28;20436;-82
2021/06/23 00:56:15;;;;;;;31.52;15.15;;;;;;;20.71;100.00;97216.84;5031895;28;20042;-83
2021/06/23 00:58:42;;;;;;;24.95;13.15;;;;;;;20.80;100.00;97259.34;5031794;28;20028;-81
2021/06/23 01:01:08;;;;;;;33.30;13.15;;;;;;;20.77;100.00;97254.25;5031614;28;20036;-82
2021/06/23 01:03:34;;;;;;;28.50;13.32;;;;;;;20.71;100.00;97252.19;5031538;28;20104;-81
2021/06/23 01:06:00;;;;;;;36.35;13.07;;;;;;;20.64;100.00;97253.03;5048388;28;20543;-82
2021/06/23 01:08:28;;;;;;;21.88;12.45;;;;;;;20.69;100.00;97262.38;5030395;28;20021;-81
2021/06/23 01:10:54;;;;;;;25.98;12.95;;;;;;;20.65;100.00;97268.31;5031449;28;20033;-82
2021/06/23 01:13:29;;;;;;;22.10;13.05;;;;;;;20.76;100.00;97268.03;5031145;28;20040;-82
2021/06/23 01:15:55;;;;;;;34.50;13.32;;;;;;;20.70;100.00;97258.66;5032804;28;20029;-82
2021/06/23 01:18:23;;;;;;;32.50;12.65;;;;;;;20.76;100.00;97271.59;5031061;28;20022;-82
2021/06/23 01:20:49;;;;;;;29.83;12.57;;;;;;;20.69;100.00;97256.94;5048018;28;20060;-82
2021/06/23 01:23:15;;;;;;;27.92;12.70;;;;;;;20.76;100.00;97268.88;5030969;28;20428;-82
2021/06/23 01:25:42;;;;;;;28.20;12.13;;;;;;;20.38;100.00;97217.75;5030973;28;20024;-82
2021/06/23 01:28:08;;;;;;;27.52;11.13;;;;;;;20.55;100.00;97246.69;5031035;28;20029;-82
2021/06/23 01:30:34;;;;;;;32.58;11.40;;;;;;;20.67;100.00;97260.84;5030855;28;20485;-81
2021/06/23 01:33:02;;;;;;;22.60;11.20;;;;;;;20.62;100.00;97263.19;5031291;28;20432;-81
2021/06/23 01:35:29;;;;;;;24.05;11.32;;;;;;;20.57;100.00;97250.13;5030888;28;20123;-82
2021/06/23 01:37:55;;;;;;;30.02;11.73;;;;;;;20.52;100.00;97247.03;5047750;28;20507;-81
2021/06/23 01:40:21;;;;;;;25.23;11.73;;;;;;;20.49;100.00;97239.19;5014150;28;20084;-82
2021/06/23 01:42:46;;;;;;;28.23;11.25;;;;;;;20.56;100.00;97264.72;5031083;28;20057;-83
2021/06/23 01:45:13;;;;;;;32.45;12.55;;;;;;;20.17;100.00;97199.16;5047659;28;20498;-83
2021/06/23 01:47:39;;;;;;;29.05;11.35;;;;;;;20.49;100.00;97260.94;5030870;28;20030;-83
2021/06/23 01:50:05;;;;;;;27.70;11.23;;;;;;;20.24;100.00;97221.09;5030786;28;20033;-82
2021/06/23 01:52:31;;;;;;;27.23;11.48;;;;;;;20.41;100.00;97261.78;5030570;28;20036;-82
2021/06/23 01:54:56;;;;;;;27.88;11.10;;;;;;;20.14;100.00;97204.03;5030858;28;20037;-82
2021/06/23 01:57:22;;;;;;;32.72;11.65;;;;;;;20.41;100.00;97267.19;5030602;28;20029;-82
2021/06/23 01:59:48;;;;;;;27.73;10.32;;;;;;;20.42;100.00;97279.78;5030742;28;20036;-81
2021/06/23 02:02:19;;;;;;;23.08;11.20;;;;;;;20.33;100.00;97269.84;5030773;28;20045;-82
2021/06/23 02:05:04;;;;;;;33.90;11.35;;;;;;;20.33;100.00;97279.91;5046946;28;20501;-81
2021/06/23 02:08:03;;;;;;;29.55;10.48;;;;;;;20.29;100.00;97273.94;5030319;28;20122;-81
2021/06/23 02:11:06;;;;;;;27.15;10.75;;;;;;;20.31;100.00;97284.63;5047027;28;20036;-81
2021/06/23 02:13:52;;;;;;;26.80;11.48;;;;;;;19.95;100.00;97244.00;5046702;28;20029;-81
2021/06/23 02:16:18;;;;;;;33.58;12.68;;;;;;;20.14;100.00;97286.38;5030505;28;20053;-81
2021/06/23 02:18:43;;;;;;;23.95;11.88;;;;;;;19.99;100.00;97244.53;5046860;28;20064;-81
2021/06/23 02:21:09;;;;;;;38.72;12.18;;;;;;;20.15;100.00;97277.19;5047004;28;20382;-81
2021/06/23 02:23:36;;;;;;;34.38;11.52;;;;;;;20.08;100.00;97275.31;5030421;28;20029;-81
2021/06/23 02:26:02;;;;;;;30.90;11.20;;;;;;;20.09;100.00;97277.03;5030266;28;20018;-81
2021/06/23 02:28:29;;;;;;;30.40;12.20;;;;;;;20.15;100.00;97277.19;5029922;28;20030;-81
2021/06/23 02:30:54;;;;;;;30.75;11.80;;;;;;;20.12;100.00;97284.84;5030296;28;20055;-81
2021/06/23 02:33:20;;;;;;;32.03;12.25;;;;;;;20.18;100.00;97281.50;5030317;28;20109;-81
2021/06/23 02:35:46;;;;;;;32.67;12.88;;;;;;;19.98;100.00;97251.84;5029856;28;20025;-81
2021/06/23 02:38:12;;;;;;;31.92;11.98;;;;;;;20.00;100.00;97252.50;5030144;28;20018;-81
2021/06/23 02:40:37;;;;;;;37.70;13.00;;;;;;;20.06;100.00;97269.19;5029944;28;20046;-81
2021/06/23 02:43:03;;;;;;;31.52;13.38;;;;;;;20.23;100.00;97292.72;5030464;28;20025;-82
2021/06/23 02:45:29;;;;;;;28.48;12.18;;;;;;;20.12;100.00;97284.84;5030206;28;20120;-81
2021/06/23 02:47:55;;;;;;;29.70;12.52;;;;;;;20.05;100.00;97286.50;5030378;28;20120;-83
2021/06/23 02:50:21;;;;;;;32.53;12.98;;;;;;;20.07;100.00;97289.88;5030525;28;20034;-83
2021/06/23 02:52:47;;;;;;;37.30;13.07;;;;;;;20.01;100.00;97291.38;5030475;28;20080;-82
2021/06/23 02:55:22;;;;;;;26.02;11.35;;;;;;;20.11;100.00;97302.16;5030209;28;20206;-81
2021/06/23 02:57:48;;;;;;;27.17;10.68;;;;;;;19.88;100.00;97269.22;5029966;28;20041;-82
2021/06/23 03:00:15;;;;;;;26.05;10.07;;;;;;;20.01;100.00;97292.25;5013554;28;20033;-82
2021/06/23 03:02:40;;;;;;;26.17;9.73;;;;;;;19.90;100.00;97284.34;5030267;28;20096;-81
2021/06/23 03:05:07;;;;;;;22.13;9.10;;;;;;;19.88;100.00;97285.53;5030003;28;20493;-81
2021/06/23 03:07:32;;;;;;;22.42;9.20;;;;;;;19.97;100.00;97317.16;5029803;28;20040;-82
2021/06/23 03:10:10;;;;;;;29.27;9.82;;;;;;;19.86;100.00;97296.56;5029906;28;20029;-83
2021/06/23 03:12:36;;;;;;;28.52;9.13;;;;;;;19.74;100.00;97267.97;5030130;28;20037;-85
2021/06/23 03:15:04;;;;;;;27.10;9.35;;;;;;;20.16;100.00;97316.94;5030672;28;20108;-84
2021/06/23 03:17:30;;;;;;;32.25;9.65;;;;;;;19.96;100.00;97282.88;5029912;28;20029;-82
2021/06/23 03:19:55;;;;;;;32.72;10.68;;;;;;;20.18;100.00;97314.09;5029780;28;20033;-81
2021/06/23 03:22:21;;;;;;;25.55;9.52;;;;;;;20.24;100.00;97324.31;5029930;28;20191;-81
2021/06/23 03:24:46;;;;;;;29.48;9.80;;;;;;;20.37;100.00;97325.59;5029420;28;20033;-81
2021/06/23 03:27:12;;;;;;;22.63;9.70;;;;;;;20.35;100.00;97310.47;5029607;28;20025;-81
2021/06/23 03:29:38;;;;;;;23.60;9.52;;;;;;;20.34;100.00;97325.91;5029731;28;20108;-81
2021/06/23 03:32:09;;;;;;;28.85;10.68;;;;;;;20.45;100.00;97336.53;5031199;28;20468;-81
2021/06/23 03:34:35;;;;;;;30.75;9.90;;;;;;;20.44;100.00;97323.09;5049994;28;20091;-81
2021/06/23 03:37:01;;;;;;;30.25;10.02;;;;;;;20.63;100.00;97333.72;5050200;28;20017;-82
2021/06/23 03:39:27;;;;;;;33.95;10.40;;;;;;;20.59;100.00;97317.88;5033765;28;20175;-82
2021/06/23 03:41:53;;;;;;;30.63;9.88;;;;;;;20.77;100.00;97352.13;5033661;28;21321;-82
2021/06/23 03:44:18;;;;;;;35.78;9.68;;;;;;;20.78;100.00;97331.22;5033335;28;20032;-82
2021/06/23 03:46:44;;;;;;;38.28;11.55;;;;;;;20.73;100.00;97326.31;5033244;28;20044;-82
2021/06/23 03:49:09;;;;;;;38.00;10.57;;;;;;;20.59;100.00;97302.44;5032931;28;20477;-82
2021/06/23 03:51:35;;;;;;;32.10;11.30;;;;;;;20.65;100.00;97299.06;5049961;28;20501;-85
2021/06/23 03:54:00;;;;;;;36.63;11.35;;;;;;;21.06;100.00;97351.75;5033791;28;20026;-83
2021/06/23 03:56:26;;;;;;;26.98;11.05;;;;;;;21.15;100.00;97360.81;5033682;28;20530;-82
2021/06/23 03:58:52;;;;;;;36.30;11.05;;;;;;;21.13;100.00;97349.25;5049850;28;20021;-81
2021/06/23 04:01:17;;;;;;;31.67;12.05;;;;;;;21.12;100.00;97347.53;5033023;28;20408;-85
2021/06/23 04:03:43;;;;;;;44.70;11.93;;;;;;;21.26;100.00;97361.34;5033551;28;20064;-77
2021/06/23 04:06:08;;;;;;;37.83;12.23;;;;;;;21.21;100.00;97350.13;5049454;28;20030;-78
2021/06/23 04:08:34;;;;;;;41.65;13.02;;;;;;;21.42;100.00;97371.41;5049648;28;20029;-82
2021/06/23 04:11:00;;;;;;;36.85;12.77;;;;;;;21.51;100.00;97359.53;5033083;28;20032;-77
2021/06/23 04:13:25;;;;;;;34.30;14.30;;;;;;;21.54;100.00;97349.16;5033802;28;20041;-81
2021/06/23 04:15:51;;;;;;;35.83;13.80;;;;;;;21.69;100.00;97357.50;5031482;28;20116;-85
2021/06/23 04:18:16;;;;;;;47.30;14.25;;;;;;;21.72;100.00;97349.00;5047181;28;20586;-87
2021/06/23 04:20:42;;;;;;;28.55;12.55;;;;;;;21.84;100.00;97352.28;5030307;28;20041;-88
2021/06/23 04:23:07;;;;;;;32.00;12.27;;;;;;;21.85;100.00;97349.38;5030492;28;20504;-77
2021/06/23 04:25:33;;;;;;;25.50;11.65;;;;;;;21.90;100.00;97343.44;5048092;28;20400;-77
2021/06/23 04:27:58;;;;;;;34.38;12.15;;;;;;;22.08;100.00;97353.16;5048805;28;20040;-77
2021/06/23 04:30:24;;;;;;;26.60;12.35;;;;;;;22.37;100.00;97381.72;5033426;28;20116;-78
2021/06/23 04:32:50;;;;;;;25.65;11.63;;;;;;;22.47;100.00;97388.69;5033521;28;20056;-78
2021/06/23 04:35:15;;;;;;;33.42;11.68;;;;;;;22.60;100.00;97382.72;5033402;28;20025;-77
2021/06/23 04:37:43;;;;;;;35.50;11.38;;;;;;;22.52;100.00;97371.81;5032268;28;20499;-77
2021/06/23 04:40:12;;;;;;;34.33;12.30;;;;;;;22.65;100.00;97381.19;5048512;28;20050;-77
2021/06/23 04:42:38;;;;;;;40.75;12.50;;;;;;;22.88;100.00;97394.94;5047965;28;20087;-77
2021/06/23 04:45:07;;;;;;;32.05;11.85;;;;;;;22.92;100.00;97395.41;5048273;28;20036;-77
2021/06/23 04:47:33;;;;;;;36.08;12.32;;;;;;;22.96;100.00;97377.69;5032070;28;20021;-77
2021/06/23 04:49:58;;;;;;;28.95;11.60;;;;;;;23.20;100.00;97392.09;5031986;28;20496;-77
2021/06/23 04:52:24;;;;;;;36.05;12.45;;;;;;;23.59;99.39;97383.06;5031868;28;20108;-77
2021/06/23 04:54:49;;;;;;;27.67;10.75;;;;;;;24.15;96.73;97409.97;5033102;28;20493;-80
2021/06/23 04:57:15;;;;;;;28.60;11.30;;;;;;;25.07;90.79;97411.50;5031333;28;20064;-76
2021/06/23 04:59:41;;;;;;;33.00;11.18;;;;;;;26.59;80.45;97412.25;5047965;28;20481;-77
2021/06/23 05:02:07;;;;;;;33.60;10.20;;;;;;;27.91;72.34;97413.88;5031317;28;20147;-77
2021/06/23 05:04:33;;;;;;;33.67;10.82;;;;;;;28.89;67.64;97418.72;5032783;28;20021;-76
2021/06/23 05:07:02;;;;;;;37.35;9.60;;;;;;;29.58;63.45;97397.81;5047939;28;20518;-76
2021/06/23 05:09:28;;;;;;;21.92;9.70;;;;;;;30.19;60.34;97430.44;5048326;28;20053;-76
2021/06/23 05:11:54;;;;;;;27.90;10.45;;;;;;;30.08;60.31;97420.09;5048375;28;20026;-76
2021/06/23 05:14:19;;;;;;;31.27;9.50;;;;;;;31.12;56.38;97428.72;5033080;28;20481;-76
2021/06/23 05:16:47;;;;;;;37.58;9.70;;;;;;;32.01;54.33;97434.53;5045983;28;20060;-76
2021/06/23 05:19:13;;;;;;;30.48;9.63;;;;;;;32.85;51.05;97438.25;5061643;28;20021;-76
2021/06/23 05:21:39;;;;;;;34.92;10.10;;;;;;;33.32;49.84;97423.34;5045915;28;20528;-78
2021/06/23 05:24:05;;;;;;;24.30;9.30;;;;;;;33.78;47.71;97437.19;5029382;28;20029;-76
2021/06/23 05:26:31;;;;;;;33.75;10.40;;;;;;;34.53;46.52;97448.19;5029781;28;20033;-77
2021/06/23 05:28:57;;;;;;;34.03;9.07;;;;;;;34.52;46.24;97451.19;5045304;28;20029;-77
2021/06/23 05:31:22;;;;;;;35.38;9.10;;;;;;;35.08;44.87;97447.50;5046115;28;20029;-77
2021/06/23 05:33:48;;;;;;;32.72;10.30;;;;;;;35.72;42.70;97443.28;5030389;28;20071;-76
2021/06/23 05:36:13;;;;;;;25.00;9.68;;;;;;;35.73;42.76;97456.09;5030718;28;20459;-77
2021/06/23 05:38:39;;;;;;;34.03;9.80;;;;;;;34.53;45.29;97448.19;5030853;28;20024;-77
2021/06/23 05:41:04;;;;;;;36.63;9.77;;;;;;;34.83;45.29;97447.91;5030065;28;20111;-77
2021/06/23 05:43:30;;;;;;;30.48;10.02;;;;;;;35.62;43.38;97443.16;5031005;28;20025;-77
2021/06/23 05:45:55;;;;;;;33.47;10.02;;;;;;;35.84;42.42;97455.97;5030274;28;20086;-77
2021/06/23 05:48:21;;;;;;;35.15;10.75;;;;;;;36.13;42.14;97466.97;5030053;28;20036;-76
2021/06/23 05:50:47;;;;;;;31.85;10.15;;;;;;;36.74;41.52;97451.81;5030363;28;20033;-77
2021/06/23 05:53:12;;;;;;;32.03;9.00;;;;;;;37.63;39.16;97466.84;5045103;28;20040;-77
2021/06/23 05:55:40;;;;;;;33.90;10.50;;;;;;;37.22;39.70;97460.13;5027819;28;20048;-76
2021/06/23 05:58:05;;;;;;;27.92;9.07;;;;;;;37.53;39.41;97477.97;5029184;28;20104;-76
2021/06/23 06:00:31;;;;;;;28.55;8.90;;;;;;;38.23;38.11;97482.31;5028943;28;20538;-76
2021/06/23 06:02:57;;;;;;;26.05;9.63;;;;;;;38.58;38.02;97482.44;5029023;28;20409;-76
2021/06/23 06:05:22;;;;;;;27.88;8.77;;;;;;;38.71;37.14;97483.88;5029640;28;20036;-77
2021/06/23 06:07:48;;;;;;;31.52;9.75;;;;;;;37.47;38.18;97470.66;5029867;28;20389;-76
2021/06/23 06:10:14;;;;;;;32.95;9.07;;;;;;;36.78;40.08;97481.72;5044940;28;20033;-77
2021/06/23 06:12:40;;;;;;;35.85;9.35;;;;;;;37.26;39.51;97471.56;5028160;28;20052;-77
2021/06/23 06:15:06;;;;;;;33.08;8.85;;;;;;;38.10;37.77;97480.84;5029352;28;20033;-77
2021/06/23 06:17:32;;;;;;;30.80;9.18;;;;;;;39.22;36.04;97488.50;5044278;28;20028;-76
2021/06/23 06:19:57;;;;;;;25.48;8.45;;;;;;;39.64;34.78;97482.59;5027768;28;20408;-76
2021/06/23 06:22:24;;;;;;;34.03;8.88;;;;;;;40.11;34.43;97499.09;5027667;28;20034;-76
2021/06/23 06:24:50;;;;;;;37.30;8.48;;;;;;;40.40;33.67;97491.69;5029080;28;20025;-76
2021/06/23 06:27:15;;;;;;;20.45;8.30;;;;;;;41.46;32.25;97507.13;5029772;28;20087;-76
2021/06/23 06:29:41;;;;;;;33.88;8.65;;;;;;;41.60;31.94;97494.06;5028042;28;20099;-76
2021/06/23 06:32:07;;;;;;;25.73;8.43;;;;;;;41.54;32.48;97501.69;5029746;28;20052;-76
2021/06/23 06:34:32;;;;;;;70.82;9.70;;;;;;;41.22;32.48;97503.34;5029484;28;20044;-76
2021/06/23 06:36:58;;;;;;;40.83;8.57;;;;;;;40.86;33.01;97500.75;5044841;28;20105;-76
2021/06/23 06:39:23;;;;;;;40.75;9.00;;;;;;;41.10;32.81;97504.53;5029077;28;20095;-76
2021/06/23 06:41:49;;;;;;;41.10;8.98;;;;;;;40.70;32.78;97501.97;5043769;28;20037;-76
2021/06/23 06:44:15;;;;;;;61.28;9.63;;;;;;;41.76;31.66;97495.63;5044331;28;20029;-76
2021/06/23 06:46:42;;;;;;;26.80;8.20;;;;;;;42.17;31.38;97507.31;5043959;28;20493;-76
2021/06/23 06:49:08;;;;;;;29.83;8.35;;;;;;;41.86;32.00;97509.59;5029003;28;20033;-76
2021/06/23 06:51:33;;;;;;;30.20;8.75;;;;;;;41.94;31.30;97502.47;5029197;28;20400;-76
2021/06/23 06:53:59;;;;;;;36.88;9.43;;;;;;;41.84;31.47;97492.16;5028898;28;20029;-76
2021/06/23 06:56:24;;;;;;;32.60;8.93;;;;;;;42.30;31.11;97502.94;5027685;28;20029;-76
2021/06/23 06:58:50;;;;;;;34.70;8.38;;;;;;;42.65;30.38;97494.06;5027668;28;20127;-76
2021/06/23 07:01:16;;;;;;;32.22;9.05;;;;;;;43.14;30.23;97508.59;5043782;28;20532;-75
2021/06/23 07:03:42;;;;;;;41.95;9.55;;;;;;;44.06;28.52;97503.09;5026641;28;20041;-76
2021/06/23 07:06:08;;;;;;;41.92;12.60;;;;;;;44.12;28.40;97495.34;5027627;28;20036;-75
2021/06/23 07:08:33;;;;;;;40.75;8.30;;;;;;;42.99;29.19;97499.53;5032625;28;20025;-75
2021/06/23 07:10:59;;;;;;;28.48;7.88;;;;;;;39.58;33.90;97492.16;5047092;28;20045;-75
2021/06/23 07:13:24;;;;;;;34.35;7.90;;;;;;;41.59;31.68;97496.03;5032664;28;20072;-77
2021/06/23 07:15:50;;;;;;;46.45;9.05;;;;;;;41.73;31.98;97504.63;5031663;28;20040;-76
2021/06/23 07:18:15;;;;;;;35.78;8.70;;;;;;;42.43;30.52;97490.94;5033539;28;20018;-77
2021/06/23 07:20:41;;;;;;;32.17;8.02;;;;;;;43.13;29.75;97490.00;5031927;28;20037;-77
2021/06/23 07:23:06;;;;;;;27.30;7.63;;;;;;;43.08;29.47;97497.69;5049392;28;20029;-77
2021/06/23 07:25:32;;;;;;;35.45;8.55;;;;;;;43.78;28.75;97507.00;5033237;28;20033;-77
2021/06/23 07:27:58;;;;;;;33.50;9.35;;;;;;;44.11;28.45;97507.81;5033125;28;20400;-74
2021/06/23 07:30:24;;;;;;;38.42;9.18;;;;;;;45.15;27.26;97513.56;5031684;28;20108;-75
2021/06/23 07:32:56;;;;;;;35.00;9.20;;;;;;;45.27;26.90;97516.66;5046800;28;20531;-75
2021/06/23 07:38:11;;;;;;;32.20;8.63;;;;;;;44.18;27.72;97509.09;5031419;28;20396;-76
2021/06/23 07:43:05;;;;;;;42.63;9.10;;;;;;;44.58;27.40;97515.91;5031253;28;20230;-76
2021/06/23 07:45:31;;;;;;;38.78;9.25;;;;;;;44.11;27.76;97499.34;5030362;28;20103;-75
2021/06/23 07:47:56;;;;;;;27.85;9.60;;;;;;;44.02;27.74;97489.94;5032209;28;20036;-76
2021/06/23 07:50:22;;;;;;;29.35;10.35;;;;;;;42.98;29.20;97498.69;5032682;28;20235;-76
2021/06/23 07:53:03;;;;;;;38.83;11.95;;;;;;;43.15;28.56;97500.97;5031818;28;20118;-76
2021/06/23 08:09:26;;;;;;;42.40;12.65;;;;;;;43.99;27.52;97499.88;5012187;28;20444;-76
2021/06/23 08:11:55;;;;;;;42.28;12.70;;;;;;;42.26;28.31;97504.69;5043946;28;20464;-75
2021/06/23 08:14:21;;;;;;;47.35;14.00;;;;;;;41.73;30.23;97496.19;5030786;28;20033;-75
2021/06/23 08:16:48;;;;;;;44.72;13.30;;;;;;;42.59;29.13;97487.69;5045747;28;20033;-75
2021/06/23 08:19:14;;;;;;;42.13;12.10;;;;;;;43.48;27.80;97501.88;5045697;28;20440;-76
2021/06/23 08:21:39;;;;;;;53.53;12.93;;;;;;;43.56;28.83;97498.38;5046274;28;20160;-75
2021/06/23 08:24:05;;;;;;;52.03;12.32;;;;;;;44.13;27.74;97509.16;5030502;28;20025;-75
2021/06/23 08:26:31;;;;;;;46.78;12.43;;;;;;;44.67;27.12;97493.44;5030509;28;20511;-75
2021/06/23 08:28:56;;;;;;;40.22;12.85;;;;;;;45.64;26.24;97510.66;5030277;28;20062;-76
2021/06/23 08:31:22;;;;;;;51.28;10.38;;;;;;;45.45;25.36;97512.00;5046057;28;20123;-76
2021/06/23 08:33:48;;;;;;;46.08;10.80;;;;;;;45.77;26.40;97521.09;5031672;28;20022;-76
2021/06/23 08:36:13;;;;;;;60.33;11.75;;;;;;;46.63;25.13;97509.41;5046307;28;20036;-75
2021/06/23 08:38:39;;;;;;;46.47;12.02;;;;;;;46.93;24.27;97514.19;5046390;28;20022;-78
2021/06/23 08:41:04;;;;;;;56.88;9.35;;;;;;;46.58;23.67;97506.75;5029906;28;20077;-76
2021/06/23 08:43:31;;;;;;;46.92;9.23;;;;;;;47.53;23.01;97517.13;5031769;28;20034;-78
2021/06/23 08:45:56;;;;;;;30.20;7.10;;;;;;;46.67;23.33;97518.94;5030362;28;20116;-78
2021/06/23 08:48:22;;;;;;;42.47;8.43;;;;;;;47.36;22.49;97502.91;5029953;28;20124;-78
2021/06/23 08:50:48;;;;;;;37.47;6.85;;;;;;;47.53;22.14;97499.25;5047109;28;20489;-78
2021/06/23 08:53:14;;;;;;;37.45;7.55;;;;;;;48.46;22.12;97522.13;5030231;28;20037;-79
2021/06/23 08:55:40;;;;;;;34.22;9.18;;;;;;;48.76;21.87;97516.09;5030477;28;20792;-78
2021/06/23 08:58:06;;;;;;;42.35;7.32;;;;;;;49.42;21.46;97522.91;5046885;28;20076;-79
2021/06/23 09:00:33;;;;;;;44.85;9.27;;;;;;;49.63;20.04;97519.22;5028790;28;20426;-78
2021/06/23 09:03:04;;;;;;;37.75;6.85;;;;;;;47.98;21.26;97517.56;5029409;28;20033;-78
2021/06/23 09:05:56;;;;;;;33.03;6.35;;;;;;;48.73;20.91;97488.38;5029403;28;20034;-78
2021/06/23 09:08:35;;;;;;;54.67;13.43;;;;;;;49.64;20.31;97529.44;5030296;28;20041;-78
2021/06/23 09:11:22;;;;;;;59.05;8.23;;;;;;;49.39;19.83;97506.53;5045766;28;20228;-78
2021/06/23 09:13:47;;;;;;;36.00;6.40;;;;;;;48.18;21.47;97499.78;5030292;28;20049;-79
2021/06/23 09:16:13;;;;;;;46.08;7.32;;;;;;;48.41;22.25;97516.59;5046672;28;20386;-78
2021/06/23 09:18:40;;;;;;;31.45;7.05;;;;;;;48.70;20.68;97499.63;5033322;28;20048;-79
2021/06/23 09:21:12;;;;;;;35.22;6.55;;;;;;;48.61;21.79;97525.22;5047504;28;20037;-77
2021/06/23 09:23:49;;;;;;;43.67;7.85;;;;;;;48.33;22.60;97529.69;5032379;28;20031;-77
2021/06/23 09:26:20;;;;;;;51.92;9.68;;;;;;;48.89;21.70;97520.72;5048350;28;20109;-78
2021/06/23 09:29:05;;;;;;;39.38;6.82;;;;;;;46.74;21.77;97493.75;5032529;28;20047;-78
2021/06/23 09:31:52;;;;;;;41.88;7.50;;;;;;;46.75;21.65;97506.78;5048161;28;20029;-78
2021/06/23 09:34:26;;;;;;;41.20;6.38;;;;;;;46.83;21.70;97509.66;5048480;28;20065;-77
2021/06/23 09:36:53;;;;;;;39.08;6.72;;;;;;;47.03;21.65;97490.34;5031515;28;20440;-79
2021/06/23 09:39:24;;;;;;;35.78;6.18;;;;;;;47.53;21.40;97510.59;5031603;28;20053;-79
2021/06/23 09:41:50;;;;;;;35.90;6.70;;;;;;;47.05;22.05;97499.34;5031514;28;20052;-79
2021/06/23 09:44:16;;;;;;;42.13;7.30;;;;;;;48.15;21.59;97505.34;5048527;28;20079;-79
2021/06/23 09:46:45;;;;;;;54.65;7.60;;;;;;;48.27;21.19;97502.66;5048248;28;20029;-79
2021/06/23 09:49:12;;;;;;;44.28;6.72;;;;;;;47.61;21.73;97504.09;5031790;28;20025;-79
2021/06/23 09:51:51;;;;;;;31.17;6.65;;;;;;;47.47;22.51;97506.25;5032693;28;20110;-79
2021/06/23 09:54:30;;;;;;;39.92;7.18;;;;;;;48.22;22.88;97500.81;5048068;28;20063;-79
2021/06/23 09:57:10;;;;;;;40.65;7.35;;;;;;;49.24;20.38;97497.75;5032012;28;20032;-79
2021/06/23 09:59:58;;;;;;;41.60;7.70;;;;;;;49.65;20.66;97496.97;5048037;28;20022;-79
2021/06/23 10:02:28;;;;;;;44.10;6.75;;;;;;;49.34;20.71;97503.91;5031341;28;20116;-78
2021/06/23 10:04:59;;;;;;;43.13;6.95;;;;;;;48.49;21.41;97498.72;5032594;28;20025;-78
2021/06/23 10:07:48;;;;;;;46.25;7.97;;;;;;;48.68;21.36;97504.78;5030848;28;20037;-78
2021/06/23 10:10:24;;;;;;;39.28;7.85;;;;;;;49.20;21.10;97485.41;5047715;28;20455;-79
2021/06/23 10:12:52;;;;;;;36.08;6.88;;;;;;;48.49;20.70;97496.69;5047197;28;20033;-78
2021/06/23 10:15:18;;;;;;;36.67;6.95;;;;;;;48.43;20.85;97497.19;5047826;28;20025;-79
2021/06/23 10:17:44;;;;;;;44.55;6.57;;;;;;;48.72;21.10;97489.56;5031386;28;20601;-77
2021/06/23 10:20:11;;;;;;;46.80;7.75;;;;;;;49.60;20.16;97499.97;5047542;28;20033;-78
2021/06/23 10:22:40;;;;;;;38.90;6.40;;;;;;;50.18;19.04;97493.22;5030785;28;20475;-79
2021/06/23 10:25:08;;;;;;;42.42;6.97;;;;;;;49.64;19.14;97489.59;5047237;28;20041;-80
2021/06/23 10:27:35;;;;;;;41.17;6.18;;;;;;;48.13;18.95;97468.75;5047125;28;20094;-80
2021/06/23 10:30:02;;;;;;;35.85;7.03;;;;;;;47.62;20.02;97471.72;5030878;28;20033;-78
2021/06/23 10:32:28;;;;;;;45.65;6.65;;;;;;;47.26;19.72;97467.19;5030907;28;20059;-77
2021/06/23 10:34:54;;;;;;;46.28;6.85;;;;;;;47.95;19.69;97477.66;5047279;28;20037;-80
2021/06/23 10:37:20;;;;;;;38.80;7.63;;;;;;;48.17;19.16;97478.25;5047745;28;20079;-78
2021/06/23 10:39:47;;;;;;;42.20;8.10;;;;;;;47.81;20.08;97475.81;5046916;28;20455;-78
2021/06/23 10:42:13;;;;;;;46.85;7.05;;;;;;;48.36;20.03;97486.41;5043035;28;20037;-78
2021/06/23 10:44:43;;;;;;;36.22;7.18;;;;;;;48.67;19.43;97491.78;5052009;28;20033;-77
2021/06/23 10:47:12;;;;;;;44.63;7.70;;;;;;;48.28;21.26;97498.63;5034363;28;20194;-78
2021/06/23 10:49:50;;;;;;;39.95;7.78;;;;;;;48.64;19.93;97481.09;5050737;28;20034;-79
2021/06/23 10:52:25;;;;;;;41.58;6.40;;;;;;;49.35;19.63;97491.31;5034022;28;20493;-79
2021/06/23 10:54:55;;;;;;;39.95;6.60;;;;;;;48.75;20.87;97496.56;5035438;28;20523;-79
2021/06/23 10:57:25;;;;;;;44.17;7.28;;;;;;;49.25;19.94;97488.06;5050946;28;20040;-78
2021/06/23 10:59:52;;;;;;;40.50;6.85;;;;;;;49.31;21.14;97490.38;5050736;28;20029;-79
2021/06/23 11:02:18;;;;;;;42.38;7.30;;;;;;;49.69;19.31;97490.19;5033929;28;20044;-79
2021/06/23 11:05:02;;;;;;;49.38;6.75;;;;;;;49.54;20.01;97495.69;5050781;28;20029;-79
2021/06/23 11:07:36;;;;;;;31.60;6.10;;;;;;;49.67;19.33;97491.72;5035231;28;20108;-79
2021/06/23 11:10:18;;;;;;;37.53;7.53;;;;;;;48.76;19.35;97487.69;5050017;28;20040;-79
2021/06/23 11:12:44;;;;;;;53.67;6.95;;;;;;;48.30;19.77;97485.72;5034838;28;20029;-79
2021/06/23 11:15:11;;;;;;;52.20;8.05;;;;;;;47.40;21.42;97472.72;5034687;28;20479;-79
2021/06/23 11:17:36;;;;;;;57.40;7.43;;;;;;;47.66;20.64;97479.19;5033676;28;20032;-79
2021/06/23 11:20:03;;;;;;;43.15;6.75;;;;;;;46.99;20.41;97464.66;5049836;28;20029;-78
2021/06/23 11:22:34;;;;;;;42.10;6.82;;;;;;;46.99;21.42;97470.34;5049926;28;20056;-79
2021/06/23 11:25:19;;;;;;;53.53;7.20;;;;;;;47.18;21.19;97470.03;5049088;28;20033;-79
2021/06/23 11:27:45;;;;;;;43.53;6.63;;;;;;;47.14;21.17;97464.16;5049899;28;20511;-79
2021/06/23 11:30:21;;;;;;;38.22;6.97;;;;;;;46.22;22.11;97482.25;5033108;28;20033;-79
2021/06/23 11:32:47;;;;;;;44.72;7.53;;;;;;;47.51;21.04;97476.06;5049721;28;20033;-79
2021/06/23 11:35:13;;;;;;;51.35;9.88;;;;;;;47.97;21.35;97487.50;5032768;28;20112;-79
2021/06/23 11:37:39;;;;;;;48.72;7.57;;;;;;;47.99;20.87;97485.19;5049815;28;20033;-79